createdAt,value
2019-04-22T00:03:33.930Z,63.28
2019-04-22T00:09:03.754Z,62.93
2019-04-22T00:14:06.731Z,61.95
2019-04-22T00:24:27.355Z,65.45
2019-04-22T00:34:45.485Z,68.67
2019-04-22T00:39:53.669Z,68.85
2019-04-22T00:50:25.361Z,69.63
2019-04-22T00:55:18.197Z,74.95
2019-04-22T01:00:27.685Z,70.22
2019-04-22T01:05:36.086Z,69.55
2019-04-22T01:10:40.073Z,67.90
2019-04-22T01:15:54.177Z,69.35
2019-04-22T01:21:13.625Z,65.92
2019-04-22T01:25:58.232Z,70.22
2019-04-22T01:30:53.698Z,68.37
2019-04-22T01:36:15.609Z,68.30
2019-04-22T01:41:35.324Z,67.80
2019-04-22T01:46:39.635Z,69.03
2019-04-22T01:51:51.816Z,70.42
2019-04-22T01:56:55.315Z,71.12
2019-04-22T02:01:55.069Z,70.90
2019-04-22T02:07:10.703Z,74.30
2019-04-22T02:12:12.857Z,82.67
2019-04-22T02:17:30.687Z,77.65
2019-04-22T02:22:42.824Z,79.07
2019-04-22T02:27:39.016Z,84.42
2019-04-22T02:33:08.602Z,83.82
2019-04-22T02:38:07.214Z,86.00
2019-04-22T02:43:11.895Z,86.95
2019-04-22T02:48:31.919Z,88.15
2019-04-22T02:53:58.410Z,91.12
2019-04-22T02:58:42.433Z,86.85
2019-04-22T03:03:59.235Z,88.30
2019-04-22T03:13:59.931Z,102.30
2019-04-22T03:19:05.799Z,100.95
2019-04-22T03:29:14.450Z,101.85
2019-04-22T03:35:09.735Z,103.50
2019-04-22T03:39:54.461Z,106.97
2019-04-22T03:44:39.187Z,104.65
2019-04-22T03:49:58.993Z,107.63
2019-04-22T03:55:05.075Z,106.50
2019-04-22T04:00:15.568Z,107.43
2019-04-22T04:05:10.770Z,109.48
2019-04-22T04:10:27.807Z,111.40
2019-04-22T04:15:28.417Z,119.13
2019-04-22T04:30:51.313Z,118.82
2019-04-22T04:36:03.595Z,117.97
2019-04-22T04:41:23.169Z,114.65
2019-04-22T04:56:40.431Z,125.25
2019-04-22T05:01:44.871Z,129.70
2019-04-22T05:06:53.554Z,120.92
2019-04-22T05:12:22.806Z,124.45
2019-04-22T05:27:21.981Z,127.05
2019-04-22T05:32:17.604Z,125.35
2019-04-22T05:37:27.291Z,130.12
2019-04-22T05:42:28.473Z,128.00
2019-04-22T05:47:42.265Z,128.35
2019-04-22T05:52:51.107Z,133.25
2019-04-22T05:58:02.459Z,130.35
2019-04-22T06:03:23.526Z,123.82
2019-04-22T06:08:22.140Z,130.87
2019-04-22T06:13:26.755Z,125.53
2019-04-22T06:18:36.741Z,128.95
2019-04-22T06:23:46.956Z,123.22
2019-04-22T06:28:56.952Z,129.93
2019-04-22T06:34:02.811Z,122.95
2019-04-22T06:39:14.342Z,124.57
2019-04-22T06:44:21.531Z,116.50
2019-04-22T06:54:32.870Z,122.28
2019-04-22T06:59:36.571Z,127.85
2019-04-22T07:04:50.702Z,132.87
2019-04-22T07:09:56.986Z,105.17
2019-04-22T07:15:02.787Z,98.00
2019-04-22T07:20:10.673Z,114.20
2019-04-22T07:25:17.316Z,104.85
2019-04-22T07:30:26.488Z,105.95
2019-04-22T07:35:42.540Z,91.57
2019-04-22T07:40:43.346Z,100.02
2019-04-22T07:45:48.944Z,97.82
2019-04-22T07:56:05.324Z,91.35
2019-04-22T08:01:14.021Z,93.33
2019-04-22T08:16:36.878Z,90.38
2019-04-22T08:21:45.492Z,85.35
2019-04-22T08:26:53.067Z,83.35
2019-04-22T08:32:01.161Z,105.25
2019-04-22T08:37:35.671Z,78.28
2019-04-22T08:42:18.625Z,83.12
2019-04-22T08:47:29.176Z,73.67
2019-04-22T08:52:27.501Z,77.62
2019-04-22T08:57:46.999Z,86.65
2019-04-22T09:02:49.468Z,80.87
2019-04-22T09:07:52.589Z,76.12
2019-04-22T09:23:26.921Z,80.87
2019-04-22T09:28:27.842Z,73.37
2019-04-22T09:33:31.920Z,82.25
2019-04-22T09:43:52.098Z,77.78
2019-04-22T09:49:04.746Z,72.47
2019-04-22T09:54:06.004Z,67.22
2019-04-22T09:59:07.770Z,65.50
2019-04-22T10:04:14.169Z,68.83
2019-04-22T10:09:42.396Z,61.42
2019-04-22T10:19:40.916Z,58.42
2019-04-22T10:24:52.812Z,55.73
2019-04-22T10:30:00.186Z,59.70
2019-04-22T10:35:02.274Z,55.33
2019-04-22T10:40:02.927Z,55.73
2019-04-22T10:45:08.192Z,47.60
2019-04-22T10:50:16.524Z,55.03
2019-04-22T10:55:23.465Z,47.75
2019-04-22T11:00:29.573Z,52.17
2019-04-22T11:05:37.953Z,52.40
2019-04-22T11:11:01.998Z,53.70
2019-04-22T11:15:52.982Z,47.55
2019-04-22T11:21:01.930Z,43.87
2019-04-22T11:26:08.166Z,42.58
2019-04-22T11:31:14.704Z,43.63
2019-04-22T11:36:21.791Z,41.80
2019-04-22T11:41:29.488Z,35.55
2019-04-22T11:46:35.667Z,36.08
2019-04-22T11:51:42.196Z,36.90
2019-04-22T11:56:49.505Z,41.23
2019-04-22T12:01:56.915Z,39.25
2019-04-22T12:07:04.242Z,42.53
2019-04-22T12:12:11.938Z,45.05
2019-04-22T12:17:18.100Z,45.20
2019-04-22T12:22:25.091Z,31.37
2019-04-22T12:27:32.639Z,38.23
2019-04-22T12:32:39.170Z,44.15
2019-04-22T12:37:51.479Z,45.03
2019-04-22T12:42:53.524Z,51.08
2019-04-22T12:48:02.125Z,48.02
2019-04-22T12:53:12.627Z,50.03
2019-04-22T12:58:16.164Z,36.80
2019-04-22T13:03:22.358Z,38.95
2019-04-22T13:08:29.707Z,41.00
2019-04-22T13:13:36.849Z,32.38
2019-04-22T13:18:50.275Z,41.18
2019-04-22T13:23:50.830Z,36.50
2019-04-22T13:28:57.040Z,30.17
2019-04-22T13:34:04.044Z,30.05
2019-04-22T13:39:11.311Z,41.15
2019-04-22T13:44:18.838Z,38.20
2019-04-22T13:49:59.737Z,39.23
2019-04-22T13:59:44.582Z,46.65
2019-04-22T14:04:50.515Z,45.70
2019-04-22T14:09:58.108Z,51.73
2019-04-22T14:15:06.197Z,39.33
2019-04-22T14:20:13.138Z,29.07
2019-04-22T14:25:20.649Z,30.05
2019-04-22T14:30:28.467Z,50.85
2019-04-22T14:35:35.471Z,46.95
2019-04-22T14:40:43.548Z,58.87
2019-04-22T14:46:27.573Z,55.95
2019-04-22T14:51:16.071Z,30.15
2019-04-22T14:56:05.051Z,55.38
2019-04-22T15:01:14.865Z,50.50
2019-04-22T15:06:22.306Z,45.80
2019-04-22T15:11:28.993Z,36.33
2019-04-22T15:17:05.024Z,42.58
2019-04-22T15:22:10.807Z,14.68
2019-04-22T15:27:18.337Z,18.30
2019-04-22T15:32:25.281Z,17.00
2019-04-22T15:37:33.071Z,10.82
2019-04-22T15:42:42.854Z,11.18
2019-04-22T15:47:48.300Z,16.55
2019-04-22T15:52:57.146Z,11.38
2019-04-22T15:58:03.481Z,8.60
2019-04-22T16:03:12.362Z,9.95
2019-04-22T16:08:19.023Z,7.85
2019-04-22T16:13:28.756Z,7.10
2019-04-22T16:18:32.737Z,9.60
2019-04-22T16:24:00.499Z,6.83
2019-04-22T16:29:07.323Z,10.38
2019-04-22T16:34:13.551Z,8.80
2019-04-22T16:39:20.734Z,7.97
2019-04-22T16:44:26.875Z,11.18
2019-04-22T16:49:33.897Z,10.20
2019-04-22T16:54:40.111Z,7.30
2019-04-22T16:59:46.625Z,8.48
2019-04-22T17:05:01.800Z,8.18
2019-04-22T17:10:08.399Z,7.60
2019-04-22T17:15:16.812Z,8.90
2019-04-22T17:20:22.967Z,8.78
2019-04-22T17:25:30.163Z,9.35
2019-04-22T17:30:36.288Z,9.83
2019-04-22T17:35:45.327Z,7.60
2019-04-22T17:41:06.206Z,12.10
2019-04-22T17:46:31.006Z,15.58
2019-04-22T17:51:47.731Z,11.85
2019-04-22T17:56:51.070Z,8.50
2019-04-22T18:01:53.962Z,13.70
2019-04-22T18:07:14.306Z,20.08
2019-04-22T18:12:20.109Z,16.85
2019-04-22T18:17:19.373Z,11.88
2019-04-22T18:22:20.347Z,15.85
2019-04-22T18:27:48.905Z,14.83
2019-04-22T18:32:42.559Z,14.05
2019-04-22T18:37:50.600Z,13.15
2019-04-22T18:42:56.619Z,10.55
2019-04-22T18:47:56.195Z,11.38
2019-04-22T18:53:38.779Z,13.38
2019-04-22T18:58:34.485Z,12.68
2019-04-22T19:03:30.125Z,10.95
2019-04-22T19:08:55.668Z,13.03
2019-04-22T19:14:07.690Z,14.90
2019-04-22T19:19:29.817Z,12.75
2019-04-22T19:24:15.061Z,10.28
2019-04-22T19:29:27.067Z,13.25
2019-04-22T19:34:31.996Z,11.68
2019-04-22T19:39:45.513Z,14.98
2019-04-22T19:44:53.208Z,11.63
2019-04-22T19:50:03.886Z,14.85
2019-04-22T19:55:07.622Z,18.73
2019-04-22T20:00:21.372Z,14.38
2019-04-22T20:05:43.710Z,11.43
2019-04-22T20:10:55.567Z,14.35
2019-04-22T20:15:55.280Z,15.95
2019-04-22T20:21:18.258Z,14.40
2019-04-22T20:26:15.192Z,15.03
2019-04-22T20:31:26.620Z,13.20
2019-04-22T20:36:53.096Z,12.03
2019-04-22T20:41:39.968Z,13.62
2019-04-22T20:46:49.086Z,12.33
2019-04-22T20:52:06.317Z,10.58
2019-04-22T20:57:01.063Z,11.15
2019-04-22T21:02:13.530Z,13.25
2019-04-22T21:07:20.083Z,13.30
2019-04-22T21:12:22.411Z,20.65
2019-04-22T21:17:42.917Z,14.07
2019-04-22T21:22:49.363Z,19.23
2019-04-22T21:27:56.867Z,17.12
2019-04-22T21:33:03.549Z,13.30
2019-04-22T21:38:15.158Z,18.23
2019-04-22T21:43:24.499Z,13.98
2019-04-22T21:48:37.285Z,11.83
2019-04-22T21:53:43.854Z,15.85
2019-04-22T21:59:00.161Z,17.87
2019-04-22T22:04:03.100Z,14.80
2019-04-22T22:09:15.300Z,20.20
2019-04-22T22:14:18.150Z,19.73
2019-04-22T22:19:23.980Z,15.85
2019-04-22T22:24:34.239Z,20.72
2019-04-22T22:29:49.306Z,19.73
2019-04-22T22:34:53.471Z,25.77
2019-04-22T22:39:47.481Z,36.55
2019-04-22T22:44:48.164Z,65.80
2019-04-22T22:50:12.485Z,58.95
2019-04-22T22:55:14.796Z,68.85
2019-04-22T23:00:24.548Z,81.08
2019-04-22T23:05:37.623Z,83.72
2019-04-22T23:10:52.149Z,82.55
2019-04-22T23:15:44.335Z,84.40
2019-04-22T23:20:43.626Z,83.10
2019-04-22T23:26:06.111Z,86.67
2019-04-22T23:31:09.598Z,86.00
2019-04-22T23:36:45.891Z,82.90
2019-04-22T23:41:58.532Z,81.10
2019-04-22T23:47:10.941Z,82.23
2019-04-22T23:52:23.854Z,83.62
2019-04-22T23:57:33.337Z,87.05
